createdAt,value
2023-01-06T00:01:26.745Z,6.57
2023-01-06T00:03:55.543Z,6.47
2023-01-06T00:06:27.474Z,6.10
2023-01-06T00:08:56.499Z,7.03
2023-01-06T00:11:23.971Z,7.03
2023-01-06T00:13:51.574Z,6.00
2023-01-06T00:16:21.388Z,6.17
2023-01-06T00:18:49.043Z,6.83
2023-01-06T00:21:16.441Z,6.53
2023-01-06T00:23:43.701Z,6.17
2023-01-06T00:26:10.971Z,6.70
2023-01-06T00:28:38.789Z,7.13
2023-01-06T00:31:10.854Z,6.77
2023-01-06T00:33:40.406Z,8.67
2023-01-06T00:36:10.354Z,7.70
2023-01-06T00:38:38.442Z,6.87
2023-01-06T00:41:27.093Z,6.70
2023-01-06T00:43:56.826Z,6.80
2023-01-06T00:46:26.839Z,7.90
2023-01-06T00:49:04.524Z,7.50
2023-01-06T00:51:35.730Z,7.93
2023-01-06T00:54:03.110Z,6.37
2023-01-06T00:56:30.171Z,6.23
2023-01-06T00:58:57.424Z,6.13
2023-01-06T01:01:24.794Z,5.77
2023-01-06T01:03:52.269Z,6.50
2023-01-06T01:06:19.184Z,6.33
2023-01-06T01:08:46.440Z,5.63
2023-01-06T01:11:36.383Z,6.23
2023-01-06T01:14:03.761Z,7.50
2023-01-06T01:16:30.806Z,7.87
2023-01-06T01:18:58.098Z,7.00
2023-01-06T01:21:25.200Z,6.70
2023-01-06T01:23:52.474Z,7.07
2023-01-06T01:26:19.526Z,6.87
2023-01-06T01:28:47.149Z,5.43
2023-01-06T01:31:16.159Z,5.53
2023-01-06T01:33:43.695Z,6.47
2023-01-06T01:36:13.547Z,6.60
2023-01-06T01:38:40.956Z,7.17
2023-01-06T01:41:08.065Z,7.30
2023-01-06T01:43:58.913Z,7.07
2023-01-06T01:46:27.919Z,7.10
2023-01-06T01:48:58.505Z,9.33
2023-01-06T01:51:39.977Z,11.23
2023-01-06T01:54:11.305Z,12.90
2023-01-06T01:56:43.003Z,11.30
2023-01-06T01:59:17.309Z,11.83
2023-01-06T02:01:46.093Z,12.30
2023-01-06T02:04:13.588Z,12.27
2023-01-06T02:06:41.301Z,13.70
2023-01-06T02:09:59.900Z,14.03
2023-01-06T02:12:27.420Z,16.10
2023-01-06T02:14:54.939Z,15.23
2023-01-06T02:17:40.493Z,13.70
2023-01-06T02:20:10.667Z,13.53
2023-01-06T02:22:56.753Z,12.90
2023-01-06T02:25:45.758Z,12.67
2023-01-06T02:28:22.221Z,12.93
2023-01-06T02:31:14.654Z,13.23
2023-01-06T02:33:57.394Z,13.27
2023-01-06T02:36:37.799Z,14.20
2023-01-06T02:39:16.139Z,15.47
2023-01-06T02:41:48.378Z,14.93
2023-01-06T02:44:30.469Z,16.37
2023-01-06T02:47:25.265Z,19.30
2023-01-06T02:50:03.291Z,15.07
2023-01-06T02:52:43.705Z,17.83
2023-01-06T02:55:16.675Z,16.43
2023-01-06T02:57:53.174Z,18.27
2023-01-06T03:00:38.042Z,19.90
2023-01-06T03:03:15.667Z,16.90
2023-01-06T03:05:46.010Z,17.27
2023-01-06T03:08:16.482Z,16.23
2023-01-06T03:10:44.974Z,20.00
2023-01-06T03:13:17.741Z,18.13
2023-01-06T03:15:44.879Z,17.77
2023-01-06T03:18:12.362Z,18.03
2023-01-06T03:20:39.526Z,15.00
2023-01-06T03:23:06.843Z,16.93
2023-01-06T03:25:34.204Z,16.13
2023-01-06T03:28:01.432Z,16.90
2023-01-06T03:30:43.527Z,15.53
2023-01-06T03:33:27.907Z,15.97
2023-01-06T03:36:25.014Z,17.73
2023-01-06T03:39:11.190Z,15.97
2023-01-06T03:42:00.027Z,14.93
2023-01-06T03:44:52.732Z,14.97
2023-01-06T03:47:30.295Z,15.50
2023-01-06T03:50:07.227Z,16.87
2023-01-06T03:52:39.149Z,14.93
2023-01-06T03:55:13.090Z,15.70
2023-01-06T03:57:45.095Z,12.43
2023-01-06T04:00:20.724Z,14.10
2023-01-06T04:02:55.243Z,13.27
2023-01-06T04:05:26.803Z,15.60
2023-01-06T04:07:54.669Z,16.60
2023-01-06T04:10:23.634Z,16.33
2023-01-06T04:12:54.264Z,16.23
2023-01-06T04:15:29.387Z,18.57
2023-01-06T04:17:56.947Z,16.47
2023-01-06T04:20:28.639Z,18.77
2023-01-06T04:23:05.110Z,19.47
2023-01-06T04:25:36.893Z,17.97
2023-01-06T04:28:09.553Z,18.57
2023-01-06T04:30:36.974Z,19.37
2023-01-06T04:33:04.090Z,17.77
2023-01-06T04:35:31.265Z,16.87
2023-01-06T04:38:03.315Z,16.17
2023-01-06T04:40:30.647Z,17.40
2023-01-06T04:43:07.142Z,16.47
2023-01-06T04:45:35.341Z,14.77
2023-01-06T04:48:02.490Z,21.27
2023-01-06T04:50:29.696Z,16.57
2023-01-06T04:52:56.675Z,17.33
2023-01-06T04:55:23.965Z,17.07
2023-01-06T04:57:50.970Z,16.10
2023-01-06T05:00:18.758Z,19.60
2023-01-06T05:02:46.019Z,16.73
2023-01-06T05:05:13.864Z,15.23
2023-01-06T05:07:40.805Z,18.33
2023-01-06T05:10:09.404Z,17.83
2023-01-06T05:12:36.867Z,16.83
2023-01-06T05:15:05.090Z,14.83
2023-01-06T05:17:32.252Z,16.87
2023-01-06T05:19:59.513Z,17.93
2023-01-06T05:22:26.468Z,17.00
2023-01-06T05:24:53.740Z,16.60
2023-01-06T05:27:20.655Z,14.83
2023-01-06T05:29:47.909Z,14.70
2023-01-06T05:32:15.025Z,13.83
2023-01-06T05:34:42.345Z,12.30
2023-01-06T05:37:09.236Z,14.07
2023-01-06T05:39:36.579Z,14.30
2023-01-06T05:42:03.691Z,15.07
2023-01-06T05:44:30.957Z,16.20
2023-01-06T05:46:57.890Z,15.77
2023-01-06T05:49:25.089Z,16.13
2023-01-06T05:51:52.030Z,15.23
2023-01-06T05:54:19.289Z,13.57
2023-01-06T05:56:46.279Z,13.20
2023-01-06T05:59:13.536Z,12.20
2023-01-06T06:01:40.518Z,12.53
2023-01-06T06:04:07.796Z,12.40
2023-01-06T06:06:34.791Z,10.50
2023-01-06T06:09:05.273Z,11.03
2023-01-06T06:11:32.290Z,10.07
2023-01-06T06:13:59.643Z,10.83
2023-01-06T06:16:28.057Z,11.13
2023-01-06T06:18:57.095Z,11.30
2023-01-06T06:21:26.285Z,9.93
2023-01-06T06:23:55.019Z,11.57
2023-01-06T06:26:22.633Z,12.97
2023-01-06T06:28:50.500Z,13.97
2023-01-06T06:31:20.695Z,12.10
2023-01-06T06:33:50.612Z,10.60
2023-01-06T06:36:17.854Z,10.50
2023-01-06T06:38:46.276Z,11.40
2023-01-06T06:41:13.308Z,7.93
2023-01-06T06:43:41.073Z,10.13
2023-01-06T06:46:08.925Z,8.73
2023-01-06T06:48:36.672Z,12.03
2023-01-06T06:51:06.678Z,9.23
2023-01-06T06:53:34.911Z,9.13
2023-01-06T06:56:02.471Z,8.87
2023-01-06T06:58:30.035Z,8.93
2023-01-06T07:00:57.455Z,10.90
2023-01-06T07:03:25.376Z,10.60
2023-01-06T07:05:52.896Z,10.70
2023-01-06T07:08:20.380Z,11.30
2023-01-06T07:10:47.339Z,11.83
2023-01-06T07:13:14.684Z,10.43
2023-01-06T07:15:41.686Z,11.63
2023-01-06T07:18:09.426Z,9.87
2023-01-06T07:20:37.583Z,11.87
2023-01-06T07:23:05.450Z,11.47
2023-01-06T07:25:32.553Z,11.20
2023-01-06T07:28:05.602Z,9.57
2023-01-06T07:30:33.577Z,8.53
2023-01-06T07:33:01.137Z,13.00
2023-01-06T07:35:28.376Z,10.53
2023-01-06T07:37:58.231Z,9.10
2023-01-06T07:40:25.322Z,10.50
2023-01-06T07:42:52.521Z,11.00
2023-01-06T07:45:19.482Z,20.60
2023-01-06T07:47:46.866Z,11.93
2023-01-06T07:50:13.825Z,44.47
2023-01-06T07:52:41.097Z,11.23
2023-01-06T07:55:08.464Z,18.57
2023-01-06T07:57:35.919Z,23.57
2023-01-06T08:00:03.176Z,50.40
2023-01-06T08:02:39.478Z,32.67
2023-01-06T08:05:06.761Z,10.83
2023-01-06T08:07:34.027Z,10.83
2023-01-06T08:10:00.967Z,9.40
2023-01-06T08:12:28.208Z,9.13
2023-01-06T08:14:55.198Z,8.90
2023-01-06T08:17:22.400Z,10.70
2023-01-06T08:19:49.509Z,9.20
2023-01-06T08:22:16.752Z,11.30
2023-01-06T08:24:43.715Z,9.90
2023-01-06T08:27:11.274Z,8.23
2023-01-06T08:29:38.234Z,10.20
2023-01-06T08:32:10.800Z,11.50
2023-01-06T08:34:38.302Z,11.10
2023-01-06T08:37:05.507Z,11.17
2023-01-06T08:39:32.515Z,13.23
2023-01-06T08:41:59.825Z,9.27
2023-01-06T08:44:26.816Z,12.50
2023-01-06T08:46:54.011Z,8.70
2023-01-06T08:49:21.112Z,14.07
2023-01-06T08:51:48.378Z,11.50
2023-01-06T08:54:15.424Z,11.67
2023-01-06T08:56:44.694Z,11.77
2023-01-06T08:59:16.558Z,10.63
2023-01-06T09:01:44.683Z,11.07
2023-01-06T09:04:12.430Z,11.70
2023-01-06T09:06:42.612Z,10.60
2023-01-06T09:09:11.943Z,10.60
2023-01-06T09:11:46.824Z,10.37
2023-01-06T09:14:14.466Z,10.27
2023-01-06T09:16:42.038Z,9.83
2023-01-06T09:19:10.684Z,9.50
2023-01-06T09:21:38.360Z,10.33
2023-01-06T09:24:05.739Z,10.77
2023-01-06T09:26:33.026Z,10.23
2023-01-06T09:28:59.973Z,9.70
2023-01-06T09:31:27.269Z,9.70
2023-01-06T09:33:54.322Z,11.17
2023-01-06T09:36:22.241Z,12.30
2023-01-06T09:38:49.268Z,9.23
2023-01-06T09:41:24.340Z,9.83
2023-01-06T09:43:55.149Z,9.80
2023-01-06T09:46:35.116Z,12.67
2023-01-06T09:49:10.123Z,9.30
2023-01-06T09:51:38.152Z,11.50
2023-01-06T09:54:18.531Z,10.47
2023-01-06T09:56:49.299Z,8.23
2023-01-06T09:59:24.863Z,10.37
2023-01-06T10:01:53.586Z,8.87
2023-01-06T10:04:25.685Z,9.10
2023-01-06T10:06:52.928Z,9.40
2023-01-06T10:09:26.657Z,10.80
2023-01-06T10:12:03.859Z,10.63
2023-01-06T10:14:49.104Z,9.53
2023-01-06T10:17:33.310Z,7.23
2023-01-06T10:20:18.579Z,9.23
2023-01-06T10:23:02.051Z,10.70
2023-01-06T10:25:41.199Z,10.77
2023-01-06T10:28:32.152Z,10.53
2023-01-06T10:31:02.049Z,8.80
2023-01-06T10:33:35.505Z,8.13
2023-01-06T10:36:02.527Z,8.87
2023-01-06T10:38:32.719Z,10.70
2023-01-06T10:41:29.964Z,8.27
2023-01-06T10:43:57.782Z,9.47
2023-01-06T10:46:34.614Z,8.23
2023-01-06T10:49:03.312Z,8.83
2023-01-06T10:51:41.126Z,9.93
2023-01-06T10:54:14.691Z,7.90
2023-01-06T10:56:46.933Z,6.90
2023-01-06T10:59:14.350Z,8.07
2023-01-06T11:01:53.409Z,8.00
2023-01-06T11:04:21.585Z,9.37
2023-01-06T11:06:54.690Z,9.13
2023-01-06T11:09:30.209Z,8.53
2023-01-06T11:12:00.212Z,8.57
2023-01-06T11:14:32.178Z,8.37
2023-01-06T11:17:04.700Z,7.83
2023-01-06T11:19:35.759Z,11.20
2023-01-06T11:22:03.679Z,10.33
2023-01-06T11:24:31.510Z,10.43
2023-01-06T11:27:15.928Z,9.60
2023-01-06T11:29:43.333Z,8.60
2023-01-06T11:32:17.249Z,12.57
2023-01-06T11:35:12.008Z,9.23
2023-01-06T11:37:43.075Z,11.83
2023-01-06T11:40:27.473Z,9.77
2023-01-06T11:42:59.283Z,10.57
2023-01-06T11:45:39.059Z,11.63
2023-01-06T11:48:12.556Z,9.30
2023-01-06T11:50:39.909Z,8.83
2023-01-06T11:53:18.109Z,9.70
2023-01-06T11:56:22.459Z,8.90
2023-01-06T11:58:52.015Z,8.83
2023-01-06T12:01:55.829Z,10.70
2023-01-06T12:04:48.377Z,10.77
2023-01-06T12:07:20.056Z,13.17
2023-01-06T12:09:49.555Z,10.37
2023-01-06T12:12:22.926Z,11.10
2023-01-06T12:14:49.961Z,9.60
2023-01-06T12:17:26.336Z,8.90
2023-01-06T12:20:01.527Z,9.83
2023-01-06T12:22:37.427Z,9.73
2023-01-06T12:25:06.021Z,9.03
2023-01-06T12:27:48.718Z,8.87
2023-01-06T12:30:24.166Z,10.97
2023-01-06T12:32:54.231Z,13.40
2023-01-06T12:35:25.404Z,11.33
2023-01-06T12:38:01.138Z,10.80
2023-01-06T12:40:35.345Z,8.93
2023-01-06T12:43:16.188Z,8.97
2023-01-06T12:45:56.668Z,12.13
2023-01-06T12:48:27.478Z,10.97
2023-01-06T12:51:00.424Z,11.37
2023-01-06T12:53:36.364Z,9.50
2023-01-06T12:56:31.363Z,8.73
2023-01-06T12:59:17.592Z,9.13
2023-01-06T13:02:17.180Z,9.47
2023-01-06T13:04:59.707Z,11.23
2023-01-06T13:07:31.010Z,12.20
2023-01-06T13:10:15.117Z,10.53
2023-01-06T13:13:20.422Z,11.90
2023-01-06T13:15:47.786Z,9.13
2023-01-06T13:18:21.332Z,10.13
2023-01-06T13:21:08.507Z,10.13
2023-01-06T13:23:53.557Z,15.03
2023-01-06T13:26:24.112Z,10.50
2023-01-06T13:29:00.218Z,9.03
2023-01-06T13:31:41.220Z,10.10
2023-01-06T13:34:39.458Z,13.63
2023-01-06T13:37:33.373Z,12.60
2023-01-06T13:40:27.106Z,13.63
2023-01-06T13:43:27.642Z,16.47
2023-01-06T13:45:58.870Z,18.00
2023-01-06T13:48:32.752Z,18.00
2023-01-06T13:51:02.626Z,17.67
2023-01-06T13:53:37.112Z,11.60
2023-01-06T13:56:13.010Z,14.83
2023-01-06T13:58:44.342Z,15.13
2023-01-06T14:01:11.485Z,16.03
2023-01-06T14:03:40.599Z,14.33
2023-01-06T14:06:27.851Z,15.27
2023-01-06T14:08:57.257Z,14.37
2023-01-06T14:11:30.241Z,10.73
2023-01-06T14:13:59.328Z,10.67
2023-01-06T14:16:40.179Z,11.63
2023-01-06T14:19:09.809Z,18.30
2023-01-06T14:21:36.812Z,13.43
2023-01-06T14:24:17.906Z,13.13
2023-01-06T14:26:50.538Z,10.97
2023-01-06T14:29:39.453Z,23.27
2023-01-06T14:32:19.158Z,31.57
2023-01-06T14:35:01.988Z,21.27
2023-01-06T14:37:35.793Z,44.73
2023-01-06T14:40:04.354Z,50.07
2023-01-06T14:42:38.967Z,86.00
2023-01-06T14:45:17.848Z,67.60
2023-01-06T14:47:48.139Z,29.60
2023-01-06T14:50:46.602Z,40.23
2023-01-06T14:53:44.220Z,95.17
2023-01-06T14:56:20.611Z,153.20
2023-01-06T14:58:47.596Z,103.83
2023-01-06T15:01:26.723Z,60.53
2023-01-06T15:03:58.247Z,79.37
2023-01-06T15:06:27.253Z,67.40
2023-01-06T15:08:57.679Z,45.40
2023-01-06T15:11:30.118Z,93.40
2023-01-06T15:13:57.271Z,76.73
2023-01-06T15:16:33.283Z,40.47
2023-01-06T15:19:01.090Z,29.50
2023-01-06T15:21:28.508Z,15.20
2023-01-06T15:23:55.758Z,17.03
2023-01-06T15:26:28.018Z,16.10
2023-01-06T15:28:58.485Z,60.97
2023-01-06T15:31:26.241Z,27.30
2023-01-06T15:33:54.369Z,11.70
2023-01-06T15:36:23.101Z,9.10
2023-01-06T15:38:50.413Z,13.13
2023-01-06T15:41:32.601Z,13.20
2023-01-06T15:44:18.410Z,11.97
2023-01-06T15:46:45.891Z,14.17
2023-01-06T15:49:33.763Z,12.03
2023-01-06T15:52:06.871Z,13.47
2023-01-06T15:54:36.017Z,21.43
2023-01-06T15:57:15.746Z,28.70
2023-01-06T15:59:55.614Z,41.97
2023-01-06T16:02:26.450Z,35.67
2023-01-06T16:04:54.502Z,22.60
2023-01-06T16:07:35.278Z,58.40
2023-01-06T16:10:02.722Z,27.00
2023-01-06T16:12:30.055Z,23.87
2023-01-06T16:14:56.997Z,58.23
2023-01-06T16:17:34.999Z,50.37
2023-01-06T16:20:23.503Z,75.33
2023-01-06T16:22:50.725Z,38.93
2023-01-06T16:25:26.693Z,32.27
2023-01-06T16:27:59.047Z,20.90
2023-01-06T16:30:30.075Z,32.20
2023-01-06T16:33:00.260Z,44.33
2023-01-06T16:35:32.576Z,70.40
2023-01-06T16:38:00.353Z,57.30
2023-01-06T16:40:29.010Z,77.83
2023-01-06T16:42:58.493Z,49.70
2023-01-06T16:45:33.042Z,45.03
2023-01-06T16:48:00.414Z,66.67
2023-01-06T16:50:30.973Z,25.80
2023-01-06T16:53:12.277Z,59.23
2023-01-06T16:55:40.347Z,288.80
2023-01-06T16:58:18.841Z,540.27
2023-01-06T17:00:54.569Z,421.67
2023-01-06T17:03:35.093Z,289.30
2023-01-06T17:06:02.426Z,166.47
2023-01-06T17:08:35.446Z,119.43
2023-01-06T17:11:11.276Z,138.00
2023-01-06T17:13:40.733Z,81.57
2023-01-06T17:16:10.790Z,56.00
2023-01-06T17:18:59.556Z,60.53
2023-01-06T17:21:33.799Z,84.03
2023-01-06T17:24:28.435Z,54.97
2023-01-06T17:26:58.300Z,52.87
2023-01-06T17:29:28.792Z,48.50
2023-01-06T17:31:57.466Z,66.37
2023-01-06T17:34:31.491Z,60.53
2023-01-06T17:37:03.113Z,44.57
2023-01-06T17:39:37.849Z,44.23
2023-01-06T17:42:12.522Z,47.83
2023-01-06T17:44:52.270Z,39.03
2023-01-06T17:47:20.149Z,43.83
2023-01-06T17:49:50.379Z,45.60
2023-01-06T17:52:19.955Z,30.50
2023-01-06T17:55:11.306Z,28.60
2023-01-06T17:57:41.189Z,31.60
2023-01-06T18:00:36.181Z,23.30
2023-01-06T18:03:09.918Z,34.60
2023-01-06T18:05:37.259Z,29.53
2023-01-06T18:08:07.298Z,36.17
2023-01-06T18:10:36.302Z,40.73
2023-01-06T18:13:19.023Z,30.67
2023-01-06T18:15:48.391Z,34.13
2023-01-06T18:18:22.960Z,38.97
2023-01-06T18:21:04.685Z,43.73
2023-01-06T18:23:33.575Z,33.30
2023-01-06T18:26:02.286Z,30.93
2023-01-06T18:28:29.804Z,29.27
2023-01-06T18:30:59.192Z,65.07
2023-01-06T18:33:26.482Z,79.60
2023-01-06T18:35:57.701Z,44.07
2023-01-06T18:38:26.614Z,95.60
2023-01-06T18:40:54.983Z,34.40
2023-01-06T18:43:28.011Z,28.53
2023-01-06T18:46:00.403Z,46.30
2023-01-06T18:48:27.690Z,39.13
2023-01-06T18:50:57.186Z,32.03
2023-01-06T18:53:39.433Z,32.03
2023-01-06T18:56:15.773Z,37.60
2023-01-06T18:58:50.173Z,28.23
2023-01-06T19:01:29.923Z,43.20
2023-01-06T19:04:05.294Z,48.53
2023-01-06T19:06:42.465Z,62.10
2023-01-06T19:09:18.648Z,69.60
2023-01-06T19:11:47.527Z,41.90
2023-01-06T19:14:19.238Z,28.23
2023-01-06T19:16:49.036Z,32.13
2023-01-06T19:19:26.865Z,38.60
2023-01-06T19:22:06.142Z,35.70
2023-01-06T19:24:38.901Z,21.90
2023-01-06T19:27:25.557Z,21.57
2023-01-06T19:29:54.889Z,34.67
2023-01-06T19:32:24.003Z,45.70
2023-01-06T19:34:51.447Z,39.40
2023-01-06T19:37:19.071Z,49.83
2023-01-06T19:39:50.933Z,54.17
2023-01-06T19:42:27.206Z,113.33
2023-01-06T19:44:57.850Z,26.70
2023-01-06T19:47:28.714Z,34.87
2023-01-06T19:50:00.023Z,66.20
2023-01-06T19:52:39.113Z,54.13
2023-01-06T19:55:30.024Z,48.73
2023-01-06T19:58:00.163Z,36.83
2023-01-06T20:00:50.404Z,30.20
2023-01-06T20:03:33.813Z,29.07
2023-01-06T20:06:01.238Z,42.53
2023-01-06T20:08:28.926Z,36.87
2023-01-06T20:10:56.181Z,96.33
2023-01-06T20:13:23.821Z,49.50
2023-01-06T20:15:51.313Z,28.40
2023-01-06T20:18:18.988Z,25.67
2023-01-06T20:20:46.190Z,35.23
2023-01-06T20:23:14.384Z,32.80
2023-01-06T20:25:41.780Z,22.33
2023-01-06T20:28:09.456Z,24.67
2023-01-06T20:30:36.865Z,28.07
2023-01-06T20:33:04.697Z,38.70
2023-01-06T20:35:31.933Z,24.90
2023-01-06T20:37:59.495Z,56.63
2023-01-06T20:40:26.865Z,120.27
2023-01-06T20:42:54.234Z,49.57
2023-01-06T20:45:21.567Z,44.67
2023-01-06T20:47:49.169Z,35.03
2023-01-06T20:50:16.430Z,25.07
2023-01-06T20:52:47.141Z,44.07
2023-01-06T20:55:14.796Z,24.27
2023-01-06T20:57:42.446Z,17.50
2023-01-06T21:00:11.085Z,22.97
2023-01-06T21:02:39.283Z,21.80
2023-01-06T21:05:07.217Z,26.60
2023-01-06T21:07:35.307Z,26.50
2023-01-06T21:10:02.648Z,65.03
2023-01-06T21:12:30.351Z,32.83
2023-01-06T21:14:57.804Z,25.20
2023-01-06T21:17:25.233Z,21.50
2023-01-06T21:19:52.494Z,24.90
2023-01-06T21:22:20.894Z,23.20
2023-01-06T21:24:48.157Z,20.57
2023-01-06T21:27:15.733Z,19.40
2023-01-06T21:29:43.247Z,22.57
2023-01-06T21:32:11.200Z,23.07
2023-01-06T21:34:39.129Z,24.97
2023-01-06T21:37:06.872Z,56.17
2023-01-06T21:39:34.082Z,44.87
2023-01-06T21:42:19.991Z,33.03
2023-01-06T21:44:47.257Z,24.47
2023-01-06T21:47:14.978Z,37.00
2023-01-06T21:49:44.466Z,36.07
2023-01-06T21:52:14.698Z,41.20
2023-01-06T21:54:43.169Z,31.27
2023-01-06T21:57:11.750Z,27.17
2023-01-06T21:59:39.119Z,29.10
2023-01-06T22:02:06.987Z,70.23
2023-01-06T22:04:34.253Z,65.07
2023-01-06T22:07:04.255Z,57.07
2023-01-06T22:09:31.409Z,34.77
2023-01-06T22:11:59.024Z,66.43
2023-01-06T22:14:26.196Z,41.93
2023-01-06T22:16:54.760Z,39.27
2023-01-06T22:19:21.856Z,22.30
2023-01-06T22:21:49.166Z,28.87
2023-01-06T22:24:17.286Z,21.40
2023-01-06T22:26:44.600Z,29.07
2023-01-06T22:29:11.652Z,26.07
2023-01-06T22:31:39.392Z,24.50
2023-01-06T22:34:07.496Z,35.07
2023-01-06T22:36:34.830Z,24.77
2023-01-06T22:39:02.014Z,49.77
2023-01-06T22:41:29.366Z,31.93
2023-01-06T22:43:56.373Z,25.27
2023-01-06T22:46:23.743Z,22.07
2023-01-06T22:48:50.858Z,25.87
2023-01-06T22:51:18.160Z,23.70
2023-01-06T22:53:45.107Z,19.07
2023-01-06T22:56:12.826Z,18.03
2023-01-06T22:58:41.014Z,24.27
2023-01-06T23:01:09.180Z,16.67
2023-01-06T23:03:36.818Z,22.77
2023-01-06T23:06:10.066Z,31.90
2023-01-06T23:08:42.833Z,31.73
2023-01-06T23:11:16.853Z,23.60
2023-01-06T23:13:44.983Z,24.13
2023-01-06T23:16:19.075Z,24.70
2023-01-06T23:18:47.421Z,24.30
2023-01-06T23:21:17.030Z,19.27
2023-01-06T23:23:45.149Z,22.37
2023-01-06T23:26:23.865Z,23.00
2023-01-06T23:28:51.808Z,45.27
2023-01-06T23:31:24.364Z,26.70
2023-01-06T23:33:53.475Z,26.63
2023-01-06T23:36:20.669Z,20.23
2023-01-06T23:38:47.934Z,21.43
2023-01-06T23:41:17.525Z,24.77
2023-01-06T23:43:44.803Z,26.20
2023-01-06T23:46:20.087Z,22.73
2023-01-06T23:48:48.879Z,23.87
2023-01-06T23:51:16.618Z,22.43
2023-01-06T23:53:44.391Z,23.67
2023-01-06T23:56:14.139Z,24.20
2023-01-06T23:58:42.507Z,25.17
